Time;durP1;ratioP1;P1;durP2;ratioP2;P2;SDS_P1;SDS_P2;PMS_P1;PMS_P2;Temp;Humidity;BMP_temperature;BMP_pressure;BME280_temperature;BME280_humidity;BME280_pressure;Samples;Min_cycle;Max_cycle;Signal;HPM_P1;HPM_P2
2023/08/07 00:02:16;;;;;;;2.60;1.67;;;;;;;;;;4959772;28;20454;-90
2023/08/07 00:04:42;;;;;;;2.63;1.43;;;;;;;;;;4962393;28;20436;-90
2023/08/07 00:07:13;;;;;;;2.80;1.27;;;;;;;;;;4977568;28;20469;-90
2023/08/07 00:09:39;;;;;;;3.70;1.53;;;;;;;;;;4982891;28;20418;-88
2023/08/07 00:12:13;;;;;;;3.37;1.40;;;;;;;;;;4953719;28;20528;-90
2023/08/07 00:14:39;;;;;;;4.57;1.70;;;;;;;;;;4968260;28;20453;-90
2023/08/07 00:17:06;;;;;;;5.07;2.60;;;;;;;;;;4978172;28;20824;-91
2023/08/07 00:19:32;;;;;;;4.77;2.10;;;;;;;;;;4970471;28;20426;-90
2023/08/07 00:21:58;;;;;;;3.60;1.97;;;;;;;;;;5005549;28;20421;-91
2023/08/07 00:24:24;;;;;;;3.50;1.30;;;;;;;;;;4987324;28;20439;-90
2023/08/07 00:26:50;;;;;;;1.87;1.40;;;;;;;;;;4983228;28;20452;-91
2023/08/07 00:29:16;;;;;;;4.00;1.83;;;;;;;;;;5003271;28;20915;-90
2023/08/07 00:31:42;;;;;;;2.93;1.60;;;;;;;;;;5009029;28;20440;-90
2023/08/07 00:34:09;;;;;;;3.47;1.40;;;;;;;;;;4980504;28;20397;-91
2023/08/07 00:36:35;;;;;;;4.97;1.50;;;;;;;;;;4999272;28;20467;-91
2023/08/07 00:39:03;;;;;;;5.73;1.53;;;;;;;;;;5000191;28;20481;-91
2023/08/07 00:41:30;;;;;;;1.97;1.67;;;;;;;;;;4995405;28;20433;-91
2023/08/07 00:43:57;;;;;;;5.40;1.93;;;;;;;;;;5007881;28;20409;-90
2023/08/07 00:46:23;;;;;;;2.93;1.90;;;;;;;;;;4962942;28;20457;-90
2023/08/07 00:48:49;;;;;;;4.73;1.73;;;;;;;;;;4958435;28;20418;-90
2023/08/07 00:51:15;;;;;;;2.13;1.73;;;;;;;;;;4944050;28;20441;-90
2023/08/07 00:53:41;;;;;;;4.07;1.80;;;;;;;;;;4961657;28;20438;-90
2023/08/07 00:56:07;;;;;;;2.20;1.43;;;;;;;;;;4947050;28;20464;-91
2023/08/07 00:58:33;;;;;;;3.13;1.33;;;;;;;;;;4959752;29;20426;-91
2023/08/07 01:00:59;;;;;;;4.73;1.63;;;;;;;;;;4944056;28;20427;-91
2023/08/07 01:03:25;;;;;;;3.30;1.70;;;;;;;;;;4944924;28;20432;-89
2023/08/07 01:05:51;;;;;;;2.67;1.67;;;;;;;;;;4964637;28;20429;-91
2023/08/07 01:08:17;;;;;;;2.63;1.60;;;;;;;;;;4946022;28;20465;-90
2023/08/07 01:10:55;;;;;;;2.77;1.60;;;;;;;;;;4941270;28;20426;-90
2023/08/07 01:13:43;;;;;;;3.03;1.73;;;;;;;;;;4979006;28;20435;-91
2023/08/07 01:16:14;;;;;;;2.50;1.67;;;;;;;;;;4976182;28;20501;-90
2023/08/07 01:18:40;;;;;;;4.23;1.60;;;;;;;;;;4965328;28;20433;-90
2023/08/07 01:21:06;;;;;;;1.97;1.23;;;;;;;;;;4947030;28;21105;-90
2023/08/07 01:23:32;;;;;;;3.73;1.37;;;;;;;;;;4941026;28;20509;-90
2023/08/07 01:25:58;;;;;;;5.30;1.50;;;;;;;;;;4947196;28;20576;-90
2023/08/07 01:28:30;;;;;;;3.60;1.70;;;;;;;;;;4947419;28;20437;-90
2023/08/07 01:30:58;;;;;;;3.43;1.20;;;;;;;;;;4973186;28;20464;-90
2023/08/07 01:33:32;;;;;;;3.67;1.70;;;;;;;;;;4987491;28;20863;-90
2023/08/07 01:35:58;;;;;;;4.33;1.43;;;;;;;;;;4984136;28;20463;-91
2023/08/07 01:38:25;;;;;;;5.10;1.97;;;;;;;;;;4984088;28;20413;-91
2023/08/07 01:40:51;;;;;;;4.30;1.60;;;;;;;;;;4982602;28;20568;-91
2023/08/07 01:43:18;;;;;;;6.23;1.97;;;;;;;;;;4976536;28;20458;-90
2023/08/07 01:45:44;;;;;;;5.00;1.60;;;;;;;;;;4991652;28;20437;-90
2023/08/07 01:48:11;;;;;;;3.23;1.90;;;;;;;;;;4996303;28;20461;-90
2023/08/07 01:50:37;;;;;;;4.00;1.37;;;;;;;;;;4981433;28;20446;-91
2023/08/07 01:53:03;;;;;;;1.57;1.30;;;;;;;;;;4984743;28;20512;-90
2023/08/07 01:55:29;;;;;;;2.30;1.50;;;;;;;;;;4982757;28;20547;-90
2023/08/07 01:57:55;;;;;;;3.93;1.97;;;;;;;;;;4982261;28;20462;-91
2023/08/07 02:00:21;;;;;;;4.00;1.83;;;;;;;;;;4998562;28;20442;-92
2023/08/07 02:02:47;;;;;;;6.27;2.57;;;;;;;;;;4979838;28;20421;-91
2023/08/07 02:05:13;;;;;;;3.43;1.63;;;;;;;;;;4996490;28;20443;-92
2023/08/07 02:07:39;;;;;;;4.77;1.70;;;;;;;;;;4987991;28;20492;-91
2023/08/07 02:10:05;;;;;;;6.40;1.70;;;;;;;;;;5002629;28;20465;-91
2023/08/07 02:12:34;;;;;;;2.20;1.43;;;;;;;;;;4985711;28;20487;-92
2023/08/07 02:15:00;;;;;;;4.30;1.53;;;;;;;;;;4987878;28;20431;-91
2023/08/07 02:17:28;;;;;;;3.53;1.40;;;;;;;;;;4992969;28;20459;-91
2023/08/07 02:19:54;;;;;;;3.00;1.57;;;;;;;;;;4986111;28;20433;-91
2023/08/07 02:22:20;;;;;;;5.93;1.80;;;;;;;;;;4985800;28;20524;-90
2023/08/07 02:24:46;;;;;;;2.23;1.50;;;;;;;;;;4987267;28;20422;-91
2023/08/07 02:27:13;;;;;;;2.60;1.77;;;;;;;;;;4988047;28;20423;-92
2023/08/07 02:29:39;;;;;;;4.37;1.50;;;;;;;;;;4987378;28;20433;-92
2023/08/07 02:32:05;;;;;;;3.77;1.70;;;;;;;;;;4987084;28;20436;-91
2023/08/07 02:34:31;;;;;;;3.87;2.10;;;;;;;;;;4987050;28;20834;-91
2023/08/07 02:36:57;;;;;;;3.60;1.80;;;;;;;;;;5004426;28;20460;-93
2023/08/07 02:39:23;;;;;;;4.20;1.80;;;;;;;;;;4985318;28;20418;-91
2023/08/07 02:41:49;;;;;;;1.80;1.57;;;;;;;;;;4984863;28;20417;-92
2023/08/07 02:44:17;;;;;;;2.87;1.23;;;;;;;;;;4982012;28;20513;-92
2023/08/07 02:46:43;;;;;;;3.07;2.00;;;;;;;;;;4979852;28;20432;-91
2023/08/07 02:49:09;;;;;;;2.80;1.47;;;;;;;;;;5032182;23;20502;-91
2023/08/07 02:51:35;;;;;;;6.50;1.57;;;;;;;;;;5006287;28;20424;-92
2023/08/07 02:54:01;;;;;;;2.40;1.57;;;;;;;;;;5036253;28;20450;-91
2023/08/07 02:56:27;;;;;;;6.43;2.93;;;;;;;;;;5023144;28;20555;-91
2023/08/07 02:58:53;;;;;;;2.67;1.60;;;;;;;;;;5025205;28;20503;-92
2023/08/07 03:01:21;;;;;;;2.90;1.60;;;;;;;;;;5038161;28;20423;-91
2023/08/07 03:03:47;;;;;;;3.87;2.20;;;;;;;;;;5021702;28;20512;-91
2023/08/07 03:06:13;;;;;;;3.80;2.60;;;;;;;;;;5019696;28;20456;-89
2023/08/07 03:08:39;;;;;;;1.83;1.20;;;;;;;;;;5021687;28;20424;-91
2023/08/07 03:11:05;;;;;;;5.00;1.40;;;;;;;;;;5003112;28;20970;-91
2023/08/07 03:13:30;;;;;;;1.90;1.70;;;;;;;;;;5005389;28;20432;-91
2023/08/07 03:16:03;;;;;;;3.53;2.13;;;;;;;;;;5005616;28;20466;-91
2023/08/07 03:23:39;;;;;;;5.90;1.90;;;;;;;;;;5003845;28;20539;-90
2023/08/07 03:26:09;;;;;;;2.90;1.60;;;;;;;;;;4985630;28;20456;-91
2023/08/07 03:28:35;;;;;;;2.70;1.33;;;;;;;;;;4985196;28;20480;-90
2023/08/07 03:31:01;;;;;;;5.43;1.93;;;;;;;;;;4984412;28;20432;-90
2023/08/07 03:33:27;;;;;;;2.90;1.57;;;;;;;;;;4988151;28;20517;-91
2023/08/07 03:35:53;;;;;;;2.90;1.73;;;;;;;;;;5001102;28;20471;-90
2023/08/07 03:38:19;;;;;;;6.67;1.30;;;;;;;;;;5002315;28;20428;-90
2023/08/07 03:40:45;;;;;;;4.57;1.67;;;;;;;;;;4982571;28;21037;-90
2023/08/07 03:43:11;;;;;;;3.97;1.37;;;;;;;;;;4984998;28;20497;-90
2023/08/07 03:45:37;;;;;;;4.93;1.50;;;;;;;;;;4985944;28;20455;-90
2023/08/07 03:48:04;;;;;;;5.83;2.37;;;;;;;;;;4982507;28;20433;-90
2023/08/07 03:50:30;;;;;;;7.30;1.40;;;;;;;;;;4982759;28;20448;-90
2023/08/07 03:53:06;;;;;;;4.90;1.90;;;;;;;;;;5016926;28;20435;-90
2023/08/07 03:55:37;;;;;;;4.33;1.50;;;;;;;;;;5012410;28;20456;-90
2023/08/07 03:58:03;;;;;;;3.83;1.43;;;;;;;;;;4985041;28;20421;-90
2023/08/07 04:00:29;;;;;;;3.17;1.20;;;;;;;;;;5002638;28;20436;-91
2023/08/07 04:02:55;;;;;;;3.83;1.90;;;;;;;;;;5002651;28;20425;-90
2023/08/07 04:05:21;;;;;;;2.90;1.53;;;;;;;;;;4987377;28;20490;-90
2023/08/07 04:07:47;;;;;;;4.50;1.70;;;;;;;;;;4986265;28;20440;-90
2023/08/07 04:10:13;;;;;;;1.93;1.20;;;;;;;;;;4981679;28;20437;-90
2023/08/07 04:12:39;;;;;;;2.10;1.57;;;;;;;;;;5002606;28;20444;-90
2023/08/07 04:15:06;;;;;;;4.03;1.57;;;;;;;;;;4985125;28;20425;-90
2023/08/07 04:17:33;;;;;;;3.37;1.37;;;;;;;;;;4979131;28;20426;-90
2023/08/07 04:19:59;;;;;;;3.13;1.30;;;;;;;;;;4965262;28;20434;-90
2023/08/07 04:22:25;;;;;;;5.97;1.90;;;;;;;;;;4992415;28;20455;-90
2023/08/07 04:24:52;;;;;;;6.93;1.53;;;;;;;;;;4970628;28;20469;-91
2023/08/07 04:27:18;;;;;;;2.50;1.87;;;;;;;;;;4966039;28;20497;-90
2023/08/07 04:29:44;;;;;;;1.73;1.40;;;;;;;;;;4966440;28;20422;-91
2023/08/07 04:32:10;;;;;;;5.00;2.27;;;;;;;;;;4966595;28;20972;-90
2023/08/07 04:34:36;;;;;;;3.97;1.70;;;;;;;;;;4965315;28;20441;-90
2023/08/07 04:37:02;;;;;;;4.53;1.50;;;;;;;;;;4969628;28;20458;-90
2023/08/07 04:39:32;;;;;;;2.57;1.80;;;;;;;;;;4965965;28;20481;-90
2023/08/07 04:41:58;;;;;;;2.50;1.20;;;;;;;;;;4965165;28;20441;-90
2023/08/07 04:44:24;;;;;;;5.13;1.83;;;;;;;;;;4963738;28;20449;-90
2023/08/07 04:46:50;;;;;;;2.90;1.57;;;;;;;;;;4968939;28;20430;-90
2023/08/07 04:49:16;;;;;;;2.20;1.70;;;;;;;;;;4981220;28;20436;-90
2023/08/07 04:51:42;;;;;;;6.03;1.90;;;;;;;;;;4987120;28;20417;-90
2023/08/07 04:54:09;;;;;;;3.23;1.73;;;;;;;;;;5001721;28;20770;-90
2023/08/07 04:56:34;;;;;;;2.57;1.50;;;;;;;;;;4989032;28;20466;-90
2023/08/07 04:59:01;;;;;;;2.90;1.80;;;;;;;;;;4985656;28;20441;-90
2023/08/07 05:01:27;;;;;;;3.93;2.20;;;;;;;;;;5006346;28;20455;-90
2023/08/07 05:03:53;;;;;;;4.73;2.37;;;;;;;;;;5000842;28;20440;-90
2023/08/07 05:06:19;;;;;;;2.90;1.93;;;;;;;;;;4983342;28;20448;-89
2023/08/07 05:08:45;;;;;;;2.07;1.50;;;;;;;;;;5000628;28;20436;-89
2023/08/07 05:11:11;;;;;;;6.03;1.20;;;;;;;;;;5003954;28;20500;-89
2023/08/07 05:13:37;;;;;;;4.20;1.83;;;;;;;;;;4986692;28;20443;-89
2023/08/07 05:16:03;;;;;;;4.60;1.60;;;;;;;;;;4983328;28;20478;-88
2023/08/07 05:18:29;;;;;;;2.13;1.47;;;;;;;;;;5000316;28;20429;-89
2023/08/07 05:20:55;;;;;;;2.90;1.37;;;;;;;;;;4993808;28;20528;-90
2023/08/07 05:23:21;;;;;;;1.67;1.40;;;;;;;;;;5017482;28;20448;-89
2023/08/07 05:25:47;;;;;;;4.13;2.10;;;;;;;;;;4998195;28;20437;-90
2023/08/07 05:28:13;;;;;;;4.60;1.20;;;;;;;;;;4983370;28;20857;-90
2023/08/07 05:30:39;;;;;;;3.40;1.63;;;;;;;;;;4986317;28;20425;-90
2023/08/07 05:33:15;;;;;;;18.73;2.33;;;;;;;;;;4988077;28;20440;-89
2023/08/07 05:35:52;;;;;;;3.60;1.50;;;;;;;;;;5003641;28;20464;-89
2023/08/07 05:38:20;;;;;;;4.50;1.70;;;;;;;;;;5005632;28;20441;-88
2023/08/07 05:40:46;;;;;;;4.00;1.60;;;;;;;;;;4987308;28;20440;-90
2023/08/07 05:43:13;;;;;;;3.43;1.40;;;;;;;;;;4991013;28;20409;-90
2023/08/07 05:45:39;;;;;;;2.83;1.47;;;;;;;;;;4989595;28;20436;-89
2023/08/07 05:48:06;;;;;;;2.43;1.63;;;;;;;;;;5022121;28;20421;-89
2023/08/07 05:50:32;;;;;;;3.30;2.00;;;;;;;;;;4986700;28;20447;-90
2023/08/07 05:52:58;;;;;;;4.77;2.57;;;;;;;;;;5005985;28;20436;-89
2023/08/07 05:55:25;;;;;;;2.30;1.93;;;;;;;;;;5005781;28;20441;-89
2023/08/07 05:57:51;;;;;;;2.13;1.40;;;;;;;;;;5018238;28;20504;-89
2023/08/07 06:00:19;;;;;;;2.30;1.30;;;;;;;;;;5020082;28;20405;-89
2023/08/07 06:02:48;;;;;;;4.70;2.00;;;;;;;;;;4972771;28;20437;-89
2023/08/07 06:05:16;;;;;;;4.07;1.70;;;;;;;;;;5008100;28;20424;-90
2023/08/07 06:07:42;;;;;;;3.43;1.83;;;;;;;;;;5000479;28;20450;-90
2023/08/07 06:10:08;;;;;;;2.30;1.60;;;;;;;;;;4987214;28;20457;-90
2023/08/07 06:12:34;;;;;;;5.33;1.87;;;;;;;;;;4992938;28;20439;-89
2023/08/07 06:15:00;;;;;;;3.00;1.57;;;;;;;;;;4996921;28;20459;-90
2023/08/07 06:17:26;;;;;;;4.63;1.67;;;;;;;;;;4988348;28;21282;-89
2023/08/07 06:19:52;;;;;;;2.33;1.33;;;;;;;;;;4991195;28;20459;-89
2023/08/07 06:22:18;;;;;;;2.97;1.77;;;;;;;;;;4989290;28;21031;-88
2023/08/07 06:24:46;;;;;;;3.43;1.60;;;;;;;;;;4994300;28;20432;-89
2023/08/07 06:27:12;;;;;;;3.57;1.87;;;;;;;;;;4994446;28;20495;-90
2023/08/07 06:29:38;;;;;;;2.97;1.77;;;;;;;;;;4990254;28;20463;-90
2023/08/07 06:32:04;;;;;;;3.80;2.20;;;;;;;;;;4990534;28;20427;-88
2023/08/07 06:34:30;;;;;;;3.10;2.00;;;;;;;;;;4989877;28;20435;-89
2023/08/07 06:36:58;;;;;;;3.23;1.50;;;;;;;;;;5000143;28;20483;-90
2023/08/07 06:39:25;;;;;;;3.50;2.00;;;;;;;;;;5006971;28;20809;-90
2023/08/07 06:41:51;;;;;;;3.83;2.10;;;;;;;;;;4987796;28;20421;-89
2023/08/07 06:44:17;;;;;;;3.93;1.37;;;;;;;;;;4987342;28;20423;-90
2023/08/07 06:46:43;;;;;;;2.70;1.50;;;;;;;;;;5008535;28;20417;-90
2023/08/07 06:49:09;;;;;;;2.60;1.77;;;;;;;;;;4989376;28;20428;-89
2023/08/07 06:51:35;;;;;;;2.80;1.40;;;;;;;;;;4991293;28;20416;-90
2023/08/07 06:54:01;;;;;;;2.70;1.80;;;;;;;;;;4984108;28;20448;-89
2023/08/07 06:56:28;;;;;;;2.80;1.70;;;;;;;;;;5004358;28;20458;-90
2023/08/07 06:58:55;;;;;;;7.00;1.80;;;;;;;;;;5012453;28;20460;-90
2023/08/07 07:01:20;;;;;;;2.87;1.40;;;;;;;;;;5002675;28;20417;-89
2023/08/07 07:03:52;;;;;;;4.70;1.50;;;;;;;;;;4984032;28;20445;-91
2023/08/07 07:06:18;;;;;;;4.80;1.70;;;;;;;;;;4992570;28;20959;-91
2023/08/07 07:08:44;;;;;;;2.87;1.10;;;;;;;;;;5004426;28;20409;-90
2023/08/07 07:11:11;;;;;;;3.67;1.73;;;;;;;;;;5003277;28;21088;-90
2023/08/07 07:13:37;;;;;;;2.43;1.40;;;;;;;;;;5015054;28;20444;-90
2023/08/07 07:16:04;;;;;;;2.43;1.60;;;;;;;;;;4987042;28;20489;-91
2023/08/07 07:18:30;;;;;;;2.90;1.37;;;;;;;;;;4989163;28;20429;-90
2023/08/07 07:21:00;;;;;;;3.43;1.20;;;;;;;;;;5003489;28;20417;-90
2023/08/07 07:23:27;;;;;;;3.27;1.60;;;;;;;;;;5015778;28;20433;-90
2023/08/07 07:25:53;;;;;;;1.67;1.30;;;;;;;;;;4987505;28;20475;-91
2023/08/07 07:28:19;;;;;;;2.23;1.30;;;;;;;;;;4988844;28;20413;-91
2023/08/07 07:30:47;;;;;;;2.00;1.50;;;;;;;;;;4982684;28;20448;-90
2023/08/07 07:33:13;;;;;;;3.40;1.60;;;;;;;;;;4990615;28;20421;-90
2023/08/07 07:35:44;;;;;;;2.87;2.27;;;;;;;;;;4987278;28;20457;-90
2023/08/07 07:38:10;;;;;;;5.13;1.40;;;;;;;;;;4992629;28;20464;-90
2023/08/07 07:40:36;;;;;;;2.87;1.37;;;;;;;;;;4982115;28;20441;-90
2023/08/07 07:43:02;;;;;;;4.30;1.50;;;;;;;;;;4996529;28;20445;-90
2023/08/07 07:45:28;;;;;;;4.27;1.80;;;;;;;;;;4987738;28;20433;-90
2023/08/07 07:47:54;;;;;;;2.30;1.50;;;;;;;;;;4986513;28;20491;-90
2023/08/07 07:50:20;;;;;;;2.80;1.53;;;;;;;;;;4978029;28;20469;-90
2023/08/07 07:52:46;;;;;;;2.67;1.90;;;;;;;;;;4987066;28;20414;-91
2023/08/07 07:55:13;;;;;;;2.23;1.63;;;;;;;;;;4983056;28;20410;-90
2023/08/07 07:57:40;;;;;;;2.03;1.27;;;;;;;;;;4995135;28;20418;-89
2023/08/07 08:00:10;;;;;;;4.00;1.50;;;;;;;;;;4984525;28;20437;-89
2023/08/07 08:02:36;;;;;;;5.53;1.87;;;;;;;;;;4988404;28;20505;-90
2023/08/07 08:05:02;;;;;;;2.00;1.23;;;;;;;;;;4985321;28;21367;-90
2023/08/07 08:07:28;;;;;;;2.10;1.10;;;;;;;;;;5004362;28;20442;-90
2023/08/07 08:09:54;;;;;;;3.03;1.50;;;;;;;;;;4986543;28;20439;-89
2023/08/07 08:12:22;;;;;;;2.57;1.57;;;;;;;;;;4986628;28;20489;-90
2023/08/07 08:14:48;;;;;;;2.10;1.20;;;;;;;;;;4984912;28;20784;-89
2023/08/07 08:17:14;;;;;;;1.93;1.73;;;;;;;;;;5002425;28;20484;-89
2023/08/07 08:19:40;;;;;;;2.50;1.43;;;;;;;;;;4984347;28;20421;-90
2023/08/07 08:22:06;;;;;;;1.93;1.47;;;;;;;;;;4987682;28;20425;-90
2023/08/07 08:24:32;;;;;;;3.10;1.30;;;;;;;;;;4986250;28;20436;-89
2023/08/07 08:26:59;;;;;;;2.80;1.43;;;;;;;;;;5003841;28;20449;-90
2023/08/07 08:29:27;;;;;;;3.67;1.50;;;;;;;;;;4983663;28;20790;-90
2023/08/07 08:31:59;;;;;;;3.50;1.40;;;;;;;;;;5002277;28;20797;-91
2023/08/07 08:34:26;;;;;;;3.00;0.90;;;;;;;;;;4964660;28;20431;-90
2023/08/07 08:36:52;;;;;;;2.30;1.30;;;;;;;;;;4969529;28;20512;-90
2023/08/07 08:39:18;;;;;;;2.23;1.50;;;;;;;;;;4961829;28;20451;-91
2023/08/07 08:41:47;;;;;;;2.30;1.20;;;;;;;;;;4981031;28;20506;-91
2023/08/07 08:44:13;;;;;;;2.50;1.30;;;;;;;;;;4981035;28;20513;-90
2023/08/07 08:46:39;;;;;;;2.00;1.07;;;;;;;;;;4970623;28;20426;-90
2023/08/07 08:49:05;;;;;;;2.93;0.90;;;;;;;;;;4981346;28;20477;-88
2023/08/07 08:51:32;;;;;;;2.90;1.47;;;;;;;;;;4966737;28;21008;-89
2023/08/07 08:53:58;;;;;;;3.73;1.47;;;;;;;;;;4965719;28;20430;-91
2023/08/07 08:56:24;;;;;;;2.17;1.10;;;;;;;;;;4947856;29;20470;-91
2023/08/07 08:58:53;;;;;;;2.03;1.27;;;;;;;;;;4962925;28;20440;-91
2023/08/07 09:01:19;;;;;;;2.23;1.10;;;;;;;;;;4968277;28;20460;-91
2023/08/07 09:03:45;;;;;;;1.70;1.00;;;;;;;;;;4966653;28;20446;-91
2023/08/07 09:06:12;;;;;;;2.23;1.30;;;;;;;;;;4984850;28;20448;-91
2023/08/07 09:08:38;;;;;;;1.80;1.03;;;;;;;;;;4986551;28;20463;-88
2023/08/07 09:11:08;;;;;;;1.60;1.23;;;;;;;;;;4991191;28;20444;-88
2023/08/07 09:13:34;;;;;;;1.70;1.10;;;;;;;;;;5002177;28;20410;-89
2023/08/07 09:16:00;;;;;;;3.13;1.43;;;;;;;;;;4987786;28;20508;-89
2023/08/07 09:18:26;;;;;;;1.87;1.23;;;;;;;;;;4985904;28;20461;-88
2023/08/07 09:20:52;;;;;;;2.20;1.60;;;;;;;;;;4985397;28;20504;-89
2023/08/07 09:23:18;;;;;;;1.70;1.03;;;;;;;;;;4984433;28;21312;-90
2023/08/07 09:25:44;;;;;;;3.00;1.30;;;;;;;;;;4984870;28;20496;-90
2023/08/07 09:28:10;;;;;;;4.63;1.53;;;;;;;;;;4985067;28;20868;-89
2023/08/07 09:30:39;;;;;;;4.43;1.40;;;;;;;;;;4986886;28;20425;-89
2023/08/07 09:33:05;;;;;;;4.90;1.10;;;;;;;;;;4977649;28;20496;-88
2023/08/07 09:35:33;;;;;;;2.20;1.20;;;;;;;;;;4964851;28;20473;-89
2023/08/07 09:37:59;;;;;;;1.80;1.00;;;;;;;;;;4985073;28;20410;-89
2023/08/07 09:40:25;;;;;;;1.77;1.00;;;;;;;;;;4964816;28;20448;-90
2023/08/07 09:42:54;;;;;;;2.53;1.20;;;;;;;;;;4980030;28;20455;-89
2023/08/07 09:45:23;;;;;;;1.83;1.43;;;;;;;;;;4983056;28;20492;-89
2023/08/07 09:47:59;;;;;;;3.80;1.10;;;;;;;;;;4965708;28;20461;-90
2023/08/07 09:50:26;;;;;;;1.97;1.73;;;;;;;;;;4958887;28;20469;-89
2023/08/07 09:52:53;;;;;;;3.00;1.27;;;;;;;;;;4962651;28;20849;-89
2023/08/07 09:55:19;;;;;;;2.23;1.00;;;;;;;;;;4956212;28;20422;-90
2023/08/07 09:57:47;;;;;;;2.63;1.10;;;;;;;;;;4965705;28;20438;-89
2023/08/07 10:00:16;;;;;;;2.47;1.20;;;;;;;;;;4950082;28;20457;-89
2023/08/07 10:02:51;;;;;;;1.53;0.93;;;;;;;;;;4949376;28;20414;-89
2023/08/07 10:05:17;;;;;;;3.40;1.20;;;;;;;;;;5002812;28;20436;-89
2023/08/07 10:07:45;;;;;;;2.70;1.10;;;;;;;;;;5003866;28;20975;-88
2023/08/07 10:10:12;;;;;;;2.80;1.57;;;;;;;;;;4984792;28;20417;-89
2023/08/07 10:12:38;;;;;;;1.70;1.20;;;;;;;;;;5004302;28;20447;-91
2023/08/07 10:15:04;;;;;;;3.60;1.30;;;;;;;;;;5003437;28;20468;-89
2023/08/07 10:17:30;;;;;;;2.80;1.50;;;;;;;;;;4989929;28;20473;-89
2023/08/07 10:19:57;;;;;;;4.50;1.23;;;;;;;;;;4984844;28;20815;-88
2023/08/07 10:22:26;;;;;;;4.13;1.53;;;;;;;;;;5002306;28;20429;-89
2023/08/07 10:24:53;;;;;;;2.70;1.50;;;;;;;;;;4989303;28;20525;-90
2023/08/07 10:27:19;;;;;;;1.77;1.20;;;;;;;;;;4990815;28;20425;-89
2023/08/07 10:29:49;;;;;;;3.00;1.80;;;;;;;;;;4989487;28;20429;-91
2023/08/07 10:32:15;;;;;;;5.13;1.40;;;;;;;;;;4989524;28;20430;-88
2023/08/07 10:34:41;;;;;;;1.60;1.03;;;;;;;;;;4988189;28;20428;-90
2023/08/07 10:37:08;;;;;;;2.73;1.60;;;;;;;;;;4989033;28;20461;-89
2023/08/07 10:39:34;;;;;;;2.83;1.20;;;;;;;;;;5011614;28;20453;-89
2023/08/07 10:42:00;;;;;;;2.07;1.13;;;;;;;;;;4992462;28;20449;-90
2023/08/07 10:44:28;;;;;;;1.83;1.30;;;;;;;;;;4987388;28;20433;-90
2023/08/07 10:46:55;;;;;;;3.20;1.10;;;;;;;;;;4993061;28;20437;-90
2023/08/07 10:49:33;;;;;;;2.17;1.17;;;;;;;;;;4986720;28;20435;-90
2023/08/07 10:52:00;;;;;;;8.77;1.90;;;;;;;;;;4984429;28;20435;-88
2023/08/07 10:54:26;;;;;;;1.80;1.17;;;;;;;;;;5025146;28;20409;-88
2023/08/07 10:56:55;;;;;;;3.30;1.30;;;;;;;;;;4989790;28;20520;-89
2023/08/07 10:59:21;;;;;;;5.70;1.50;;;;;;;;;;4987942;28;20437;-89
2023/08/07 11:01:54;;;;;;;2.60;1.30;;;;;;;;;;4987981;28;20441;-89
2023/08/07 11:04:24;;;;;;;2.17;1.37;;;;;;;;;;5010755;28;20429;-90
2023/08/07 11:06:50;;;;;;;2.20;1.43;;;;;;;;;;4989682;28;20441;-88
2023/08/07 11:09:16;;;;;;;2.60;1.40;;;;;;;;;;4987451;28;20440;-91
2023/08/07 11:11:46;;;;;;;3.30;1.80;;;;;;;;;;4988341;28;20440;-90
2023/08/07 11:14:13;;;;;;;3.20;1.50;;;;;;;;;;5003511;28;20466;-90
2023/08/07 11:16:42;;;;;;;2.37;1.20;;;;;;;;;;4988511;28;20487;-89
2023/08/07 11:19:08;;;;;;;3.13;1.70;;;;;;;;;;5003869;28;20931;-89
2023/08/07 11:21:36;;;;;;;3.03;1.33;;;;;;;;;;4985054;28;20441;-89
2023/08/07 11:24:02;;;;;;;1.97;1.77;;;;;;;;;;4968755;28;20488;-89
2023/08/07 11:26:28;;;;;;;1.90;1.37;;;;;;;;;;4985483;28;20487;-88
2023/08/07 11:28:54;;;;;;;2.10;1.40;;;;;;;;;;5015711;28;20801;-88
2023/08/07 11:31:20;;;;;;;3.20;1.90;;;;;;;;;;4984380;28;20452;-88
2023/08/07 11:33:51;;;;;;;3.43;1.53;;;;;;;;;;4989279;28;20413;-88
2023/08/07 11:36:17;;;;;;;1.70;1.20;;;;;;;;;;4989484;28;20467;-88
2023/08/07 11:38:44;;;;;;;3.27;1.80;;;;;;;;;;5003993;28;20480;-88
2023/08/07 11:41:10;;;;;;;2.90;1.60;;;;;;;;;;4986637;28;20425;-90
2023/08/07 11:43:36;;;;;;;1.80;1.53;;;;;;;;;;5001651;28;20520;-89
2023/08/07 11:46:07;;;;;;;2.77;1.50;;;;;;;;;;5002358;28;20425;-89
2023/08/07 11:48:34;;;;;;;2.33;1.40;;;;;;;;;;4997302;28;20446;-89
2023/08/07 11:51:00;;;;;;;1.83;1.23;;;;;;;;;;5005141;28;20475;-89
2023/08/07 11:53:27;;;;;;;2.67;1.63;;;;;;;;;;4989500;28;21010;-89
2023/08/07 11:55:55;;;;;;;2.00;1.57;;;;;;;;;;4984486;28;21037;-89
2023/08/07 11:58:21;;;;;;;2.50;1.57;;;;;;;;;;5002300;28;20409;-88
2023/08/07 12:00:48;;;;;;;1.67;1.27;;;;;;;;;;4988525;28;20461;-89
2023/08/07 12:03:29;;;;;;;2.40;1.60;;;;;;;;;;4991169;28;20433;-88
2023/08/07 12:05:59;;;;;;;2.40;1.50;;;;;;;;;;4990531;28;20436;-89
2023/08/07 12:08:37;;;;;;;3.10;1.30;;;;;;;;;;4992733;28;20452;-89
2023/08/07 12:11:04;;;;;;;2.80;1.63;;;;;;;;;;4975716;28;20405;-89
2023/08/07 12:13:31;;;;;;;1.90;1.37;;;;;;;;;;4997875;28;20505;-88
2023/08/07 12:15:57;;;;;;;3.60;1.70;;;;;;;;;;4983678;28;20457;-88
2023/08/07 12:18:23;;;;;;;2.50;2.00;;;;;;;;;;4989554;28;20440;-89
2023/08/07 12:20:53;;;;;;;2.90;1.60;;;;;;;;;;5000569;28;20468;-88
2023/08/07 12:23:21;;;;;;;2.30;1.50;;;;;;;;;;4998381;28;20445;-89
2023/08/07 12:25:47;;;;;;;1.70;1.37;;;;;;;;;;4985805;28;20429;-90
2023/08/07 12:28:13;;;;;;;2.23;1.97;;;;;;;;;;4988568;28;20420;-90
2023/08/07 12:30:39;;;;;;;2.13;1.73;;;;;;;;;;4985504;28;20495;-89
2023/08/07 12:33:07;;;;;;;2.60;1.70;;;;;;;;;;5020315;28;20413;-89
2023/08/07 12:35:33;;;;;;;2.40;1.70;;;;;;;;;;5002134;28;20468;-89
2023/08/07 12:37:59;;;;;;;4.50;2.03;;;;;;;;;;4986013;28;20425;-89
2023/08/07 12:40:25;;;;;;;3.40;1.90;;;;;;;;;;5001264;28;20485;-90
2023/08/07 12:42:51;;;;;;;3.10;1.70;;;;;;;;;;4985089;28;20835;-89
2023/08/07 12:45:18;;;;;;;2.00;1.47;;;;;;;;;;5015847;28;20480;-90
2023/08/07 12:47:45;;;;;;;1.90;1.50;;;;;;;;;;4991824;28;20417;-88
2023/08/07 12:50:11;;;;;;;2.90;1.77;;;;;;;;;;5000528;28;20425;-89
2023/08/07 12:52:37;;;;;;;2.70;1.50;;;;;;;;;;4986697;28;20509;-89
2023/08/07 12:55:03;;;;;;;1.80;1.37;;;;;;;;;;4985790;28;20425;-89
2023/08/07 12:57:29;;;;;;;3.10;1.63;;;;;;;;;;4981949;28;20818;-89
2023/08/07 12:59:55;;;;;;;2.20;1.60;;;;;;;;;;4982097;28;20437;-89
2023/08/07 13:02:21;;;;;;;2.63;1.97;;;;;;;;;;4992033;28;20434;-90
2023/08/07 13:04:47;;;;;;;2.70;1.70;;;;;;;;;;4986061;28;20441;-89
2023/08/07 13:07:13;;;;;;;1.93;1.47;;;;;;;;;;4979698;28;20471;-89
2023/08/07 13:09:39;;;;;;;3.03;1.83;;;;;;;;;;4964235;28;20439;-89
2023/08/07 13:12:06;;;;;;;2.30;1.73;;;;;;;;;;4946934;28;20478;-90
2023/08/07 13:14:32;;;;;;;2.73;1.63;;;;;;;;;;4953955;28;20533;-90
2023/08/07 13:16:57;;;;;;;3.67;2.00;;;;;;;;;;4960777;28;20446;-90
2023/08/07 13:19:23;;;;;;;3.73;2.10;;;;;;;;;;4962588;28;20411;-88
2023/08/07 13:21:49;;;;;;;2.33;1.70;;;;;;;;;;4964925;28;20437;-89
2023/08/07 13:24:16;;;;;;;3.63;1.80;;;;;;;;;;4957207;28;20505;-88
2023/08/07 13:26:45;;;;;;;2.40;1.60;;;;;;;;;;4948472;28;20426;-89
2023/08/07 13:29:11;;;;;;;4.00;1.60;;;;;;;;;;4946783;28;20438;-91
2023/08/07 13:31:37;;;;;;;2.00;1.40;;;;;;;;;;4947784;28;20562;-90
2023/08/07 13:34:07;;;;;;;2.30;1.87;;;;;;;;;;4948487;28;20433;-89
2023/08/07 13:36:34;;;;;;;2.43;1.50;;;;;;;;;;4947324;28;20462;-89
2023/08/07 13:39:00;;;;;;;2.73;1.93;;;;;;;;;;4964794;28;20430;-89
2023/08/07 13:41:26;;;;;;;5.13;1.63;;;;;;;;;;4977951;28;20455;-90
2023/08/07 13:43:52;;;;;;;4.00;1.87;;;;;;;;;;4988236;28;20432;-89
2023/08/07 13:46:18;;;;;;;3.20;1.63;;;;;;;;;;4984374;28;21019;-89
2023/08/07 13:48:44;;;;;;;3.10;1.97;;;;;;;;;;4987924;28;20433;-90
2023/08/07 13:51:11;;;;;;;4.00;2.20;;;;;;;;;;4984037;28;20441;-90
2023/08/07 13:56:12;;;;;;;4.53;1.77;;;;;;;;;;4998086;28;20590;-90
2023/08/07 13:58:42;;;;;;;2.30;1.60;;;;;;;;;;5003714;28;20421;-90
2023/08/07 14:01:08;;;;;;;4.30;2.10;;;;;;;;;;4987831;28;20927;-90
2023/08/07 14:03:34;;;;;;;3.50;2.00;;;;;;;;;;4990945;28;20501;-89
2023/08/07 14:06:00;;;;;;;5.10;1.77;;;;;;;;;;4983998;28;20509;-89
2023/08/07 14:08:26;;;;;;;2.87;1.50;;;;;;;;;;5003850;28;20545;-90
2023/08/07 14:10:52;;;;;;;2.27;1.77;;;;;;;;;;4988139;28;20448;-90
2023/08/07 14:13:18;;;;;;;3.20;2.00;;;;;;;;;;4988375;28;20443;-91
2023/08/07 14:15:44;;;;;;;3.00;1.60;;;;;;;;;;5017764;28;20837;-91
2023/08/07 14:18:11;;;;;;;2.83;1.73;;;;;;;;;;4989126;28;20432;-89
2023/08/07 14:20:37;;;;;;;2.87;1.50;;;;;;;;;;4989289;28;20464;-91
2023/08/07 14:23:25;;;;;;;4.83;1.83;;;;;;;;;;5001925;28;20492;-90
2023/08/07 14:25:54;;;;;;;4.23;1.60;;;;;;;;;;5004739;28;20529;-91
2023/08/07 14:28:20;;;;;;;1.90;1.30;;;;;;;;;;4988333;28;20447;-90
2023/08/07 14:30:46;;;;;;;2.30;1.70;;;;;;;;;;4982508;28;20440;-90
2023/08/07 14:33:12;;;;;;;2.30;1.60;;;;;;;;;;4979184;28;20471;-90
2023/08/07 14:35:38;;;;;;;2.97;1.80;;;;;;;;;;4995540;28;21033;-91
2023/08/07 14:38:04;;;;;;;2.70;1.97;;;;;;;;;;5001997;28;20425;-90
2023/08/07 14:40:30;;;;;;;4.80;1.57;;;;;;;;;;5002171;28;20432;-90
2023/08/07 14:42:58;;;;;;;3.43;1.60;;;;;;;;;;4985875;28;20439;-90
2023/08/07 14:45:24;;;;;;;2.60;1.73;;;;;;;;;;4988899;28;20448;-90
2023/08/07 14:47:50;;;;;;;2.40;1.70;;;;;;;;;;4986395;28;20467;-90
2023/08/07 14:50:17;;;;;;;1.97;1.70;;;;;;;;;;4990091;28;20436;-90